createdAt,value
2018-03-15T00:00:34.673Z,22.70
2018-03-15T00:02:17.773Z,27.20
2018-03-15T00:04:01.266Z,30.50
2018-03-15T00:05:44.371Z,22.33
2018-03-15T00:07:27.497Z,29.53
2018-03-15T00:09:10.709Z,31.73
2018-03-15T00:10:53.824Z,29.17
2018-03-15T00:12:36.933Z,25.57
2018-03-15T00:14:20.338Z,28.20
2018-03-15T00:16:03.494Z,23.60
2018-03-15T00:17:46.695Z,25.60
2018-03-15T00:19:29.824Z,24.53
2018-03-15T00:21:12.938Z,24.30
2018-03-15T00:22:56.140Z,24.73
2018-03-15T00:24:39.265Z,24.03
2018-03-15T00:26:22.497Z,26.80
2018-03-15T00:28:05.694Z,28.30
2018-03-15T00:29:48.829Z,27.27
2018-03-15T00:31:31.936Z,28.73
2018-03-15T00:33:15.124Z,24.50
2018-03-15T00:34:58.244Z,24.37
2018-03-15T00:36:41.359Z,25.53
2018-03-15T00:38:24.495Z,26.00
2018-03-15T00:40:07.720Z,27.87
2018-03-15T00:41:50.825Z,24.00
2018-03-15T00:43:33.967Z,22.47
2018-03-15T00:45:17.880Z,25.53
2018-03-15T00:47:01.006Z,23.03
2018-03-15T00:48:44.126Z,23.90
2018-03-15T00:50:27.246Z,23.37
2018-03-15T00:52:10.372Z,26.97
2018-03-15T00:53:54.261Z,26.27
2018-03-15T00:55:37.389Z,21.97
2018-03-15T00:57:20.505Z,27.10
2018-03-15T00:59:03.616Z,28.17
2018-03-15T01:00:46.732Z,28.40
2018-03-15T01:02:29.952Z,23.93
2018-03-15T01:04:13.100Z,22.13
2018-03-15T01:05:56.288Z,25.40
2018-03-15T01:07:39.412Z,34.60
2018-03-15T01:09:22.650Z,24.33
2018-03-15T01:11:06.555Z,23.00
2018-03-15T01:12:49.677Z,22.87
2018-03-15T01:14:32.820Z,23.13
2018-03-15T01:16:15.949Z,29.77
2018-03-15T01:17:59.827Z,26.73
2018-03-15T01:19:42.936Z,24.10
2018-03-15T01:21:26.090Z,23.00
2018-03-15T01:23:09.196Z,24.87
2018-03-15T01:24:52.328Z,30.43
2018-03-15T01:26:35.557Z,22.40
2018-03-15T01:28:19.040Z,25.00
2018-03-15T01:30:02.157Z,29.80
2018-03-15T01:31:45.295Z,22.87
2018-03-15T01:33:28.537Z,23.03
2018-03-15T01:35:12.425Z,25.93
2018-03-15T01:36:55.570Z,25.57
2018-03-15T01:38:40.180Z,24.40
2018-03-15T01:40:23.299Z,23.10
2018-03-15T01:42:06.456Z,26.83
2018-03-15T01:43:49.573Z,25.63
2018-03-15T01:45:32.676Z,21.43
2018-03-15T01:47:15.812Z,24.73
2018-03-15T01:48:58.926Z,26.03
2018-03-15T01:50:42.124Z,32.23
2018-03-15T01:52:25.266Z,26.53
2018-03-15T01:54:08.485Z,31.13
2018-03-15T01:55:51.631Z,29.57
2018-03-15T01:57:34.820Z,28.97
2018-03-15T01:59:18.037Z,24.70
2018-03-15T02:01:01.158Z,26.10
2018-03-15T02:02:44.260Z,24.40
2018-03-15T02:04:27.397Z,27.73
2018-03-15T02:06:11.310Z,27.40
2018-03-15T02:07:54.445Z,25.10
2018-03-15T02:09:37.563Z,29.40
2018-03-15T02:11:20.692Z,35.83
2018-03-15T02:13:04.564Z,28.43
2018-03-15T02:14:49.442Z,31.53
2018-03-15T02:16:32.657Z,26.90
2018-03-15T02:18:15.814Z,29.23
2018-03-15T02:19:59.748Z,27.63
2018-03-15T02:21:43.648Z,27.53
2018-03-15T02:23:26.769Z,27.17
2018-03-15T02:25:09.901Z,27.27
2018-03-15T02:26:53.107Z,27.60
2018-03-15T02:28:36.228Z,27.87
2018-03-15T02:30:19.358Z,24.77
2018-03-15T02:32:03.256Z,25.23
2018-03-15T02:33:46.368Z,29.63
2018-03-15T02:35:29.493Z,26.30
2018-03-15T02:37:12.742Z,26.77
2018-03-15T02:38:55.847Z,28.10
2018-03-15T02:40:39.069Z,24.80
2018-03-15T02:42:22.299Z,26.50
2018-03-15T02:44:05.442Z,24.43
2018-03-15T02:45:48.560Z,24.50
2018-03-15T02:47:31.737Z,25.33
2018-03-15T02:49:14.962Z,24.73
2018-03-15T02:50:58.173Z,23.37
2018-03-15T02:52:42.104Z,22.97
2018-03-15T02:54:25.216Z,27.30
2018-03-15T02:56:08.316Z,26.67
2018-03-15T02:57:51.438Z,23.13
2018-03-15T02:59:34.585Z,22.20
2018-03-15T03:01:18.482Z,24.23
2018-03-15T03:03:01.760Z,25.10
2018-03-15T03:04:45.109Z,24.73
2018-03-15T03:06:28.263Z,25.73
2018-03-15T03:08:11.389Z,28.30
2018-03-15T03:09:54.608Z,26.97
2018-03-15T03:11:37.728Z,24.17
2018-03-15T03:13:21.668Z,32.23
2018-03-15T03:15:04.778Z,26.20
2018-03-15T03:16:48.666Z,27.50
2018-03-15T03:18:31.783Z,29.23
2018-03-15T03:20:14.891Z,25.23
2018-03-15T03:21:58.020Z,27.70
2018-03-15T03:23:41.178Z,31.20
2018-03-15T03:25:24.292Z,24.90
2018-03-15T03:27:07.440Z,32.87
2018-03-15T03:28:50.573Z,31.33
2018-03-15T03:30:33.686Z,22.07
2018-03-15T03:32:16.830Z,27.00
2018-03-15T03:33:59.949Z,21.13
2018-03-15T03:35:43.092Z,28.17
2018-03-15T03:37:26.229Z,27.03
2018-03-15T03:39:10.117Z,29.37
2018-03-15T03:40:53.268Z,25.97
2018-03-15T03:42:36.394Z,31.93
2018-03-15T03:44:20.322Z,27.40
2018-03-15T03:46:04.204Z,27.30
2018-03-15T03:47:47.369Z,27.20
2018-03-15T03:49:30.494Z,28.23
2018-03-15T03:51:14.380Z,25.57
2018-03-15T03:52:57.507Z,29.30
2018-03-15T03:54:40.624Z,25.23
2018-03-15T03:56:23.730Z,27.40
2018-03-15T03:58:06.848Z,25.10
2018-03-15T03:59:49.990Z,26.37
2018-03-15T04:01:33.206Z,27.77
2018-03-15T04:03:16.345Z,28.83
2018-03-15T04:05:00.218Z,29.40
2018-03-15T04:06:43.357Z,24.70
2018-03-15T04:08:26.489Z,28.10
2018-03-15T04:10:09.603Z,29.07
2018-03-15T04:11:52.723Z,27.97
2018-03-15T04:13:35.849Z,29.03
2018-03-15T04:15:19.083Z,28.00
2018-03-15T04:17:02.968Z,25.20
2018-03-15T04:18:46.113Z,35.37
2018-03-15T04:20:29.318Z,30.03
2018-03-15T04:22:12.528Z,30.57
2018-03-15T04:23:56.351Z,30.70
2018-03-15T04:25:39.461Z,29.23
2018-03-15T04:27:22.581Z,31.03
2018-03-15T04:29:05.708Z,31.43
2018-03-15T04:30:48.901Z,32.77
2018-03-15T04:32:32.016Z,29.17
2018-03-15T04:34:15.176Z,29.07
2018-03-15T04:35:58.284Z,30.10
2018-03-15T04:37:41.395Z,28.83
2018-03-15T04:39:24.516Z,30.37
2018-03-15T04:41:07.648Z,29.77
2018-03-15T04:42:50.784Z,28.10
2018-03-15T04:44:34.692Z,32.57
2018-03-15T04:46:17.812Z,35.40
2018-03-15T04:48:00.928Z,29.57
2018-03-15T04:49:44.070Z,34.17
2018-03-15T04:51:27.179Z,34.40
2018-03-15T04:53:11.044Z,30.43
2018-03-15T04:54:54.246Z,33.93
2018-03-15T04:56:38.120Z,38.23
2018-03-15T04:58:21.246Z,30.73
2018-03-15T05:00:04.474Z,39.53
2018-03-15T05:01:47.593Z,32.63
2018-03-15T05:03:30.712Z,34.77
2018-03-15T05:05:13.867Z,36.50
2018-03-15T05:06:57.763Z,36.50
2018-03-15T05:08:40.986Z,37.60
2018-03-15T05:10:24.129Z,34.20
2018-03-15T05:12:08.022Z,32.03
2018-03-15T05:13:51.156Z,37.80
2018-03-15T05:15:34.305Z,36.63
2018-03-15T05:17:18.268Z,33.70
2018-03-15T05:19:01.385Z,35.20
2018-03-15T05:20:44.508Z,34.10
2018-03-15T05:22:27.677Z,36.50
2018-03-15T05:24:11.585Z,37.20
2018-03-15T05:25:54.819Z,39.60
2018-03-15T05:27:37.940Z,43.03
2018-03-15T05:29:21.060Z,36.00
2018-03-15T05:31:04.172Z,45.80
2018-03-15T05:32:47.288Z,38.07
2018-03-15T05:34:31.203Z,46.00
2018-03-15T05:36:14.341Z,35.60
2018-03-15T05:37:57.467Z,39.53
2018-03-15T05:39:41.368Z,40.13
2018-03-15T05:41:24.477Z,40.80
2018-03-15T05:43:07.625Z,36.17
2018-03-15T05:44:50.770Z,39.33
2018-03-15T05:46:33.888Z,47.30
2018-03-15T05:48:17.000Z,40.50
2018-03-15T05:50:00.289Z,41.13
2018-03-15T05:51:43.412Z,41.80
2018-03-15T05:53:26.631Z,40.47
2018-03-15T05:55:10.545Z,41.03
2018-03-15T05:56:53.760Z,43.00
2018-03-15T05:58:36.891Z,35.47
2018-03-15T06:00:20.109Z,33.57
2018-03-15T06:02:04.157Z,33.60
2018-03-15T06:03:47.360Z,32.70
2018-03-15T06:05:30.475Z,34.73
2018-03-15T06:07:13.595Z,37.57
2018-03-15T06:08:56.709Z,35.83
2018-03-15T06:10:39.829Z,35.83
2018-03-15T06:12:23.164Z,37.73
2018-03-15T06:14:07.073Z,34.13
2018-03-15T06:15:50.190Z,40.00
2018-03-15T06:17:33.355Z,37.70
2018-03-15T06:19:16.495Z,36.90
2018-03-15T06:20:59.639Z,40.03
2018-03-15T06:22:42.786Z,38.70
2018-03-15T06:24:26.681Z,39.00
2018-03-15T06:26:09.838Z,37.40
2018-03-15T06:27:53.752Z,36.40
2018-03-15T06:29:36.973Z,35.87
2018-03-15T06:31:20.905Z,38.50
2018-03-15T06:33:04.052Z,37.13
2018-03-15T06:34:47.945Z,43.57
2018-03-15T06:36:31.166Z,37.43
2018-03-15T06:38:14.272Z,39.93
2018-03-15T06:39:57.430Z,38.10
2018-03-15T06:41:41.393Z,42.13
2018-03-15T06:43:24.533Z,40.33
2018-03-15T06:45:07.694Z,38.60
2018-03-15T06:46:50.860Z,36.63
2018-03-15T06:48:33.988Z,33.47
2018-03-15T06:50:17.116Z,38.17
2018-03-15T06:52:00.254Z,36.73
2018-03-15T06:53:43.384Z,32.50
2018-03-15T06:55:27.306Z,36.30
2018-03-15T06:57:10.638Z,37.53
2018-03-15T06:58:54.569Z,34.70
2018-03-15T07:00:37.765Z,35.67
2018-03-15T07:02:20.926Z,37.40
2018-03-15T07:04:04.793Z,30.80
2018-03-15T07:05:47.921Z,29.40
2018-03-15T07:07:31.044Z,31.53
2018-03-15T07:09:14.186Z,32.97
2018-03-15T07:10:57.408Z,30.53
2018-03-15T07:12:41.276Z,33.83
2018-03-15T07:14:24.391Z,31.83
2018-03-15T07:16:07.580Z,29.03
2018-03-15T07:17:51.500Z,34.37
2018-03-15T07:19:34.620Z,27.60
2018-03-15T07:21:17.892Z,32.33
2018-03-15T07:23:01.174Z,32.37
2018-03-15T07:24:45.079Z,33.70
2018-03-15T07:26:28.326Z,30.37
2018-03-15T07:28:12.254Z,32.23
2018-03-15T07:29:55.360Z,36.47
2018-03-15T07:31:38.589Z,32.67
2018-03-15T07:33:21.730Z,31.73
2018-03-15T07:35:04.849Z,31.40
2018-03-15T07:36:48.063Z,38.63
2018-03-15T07:38:31.947Z,37.50
2018-03-15T07:40:15.092Z,33.73
2018-03-15T07:41:58.209Z,38.53
2018-03-15T07:43:42.146Z,33.10
2018-03-15T07:45:25.345Z,34.27
2018-03-15T07:47:09.242Z,35.27
2018-03-15T07:48:52.380Z,37.07
2018-03-15T07:50:35.488Z,33.33
2018-03-15T07:52:18.611Z,37.43
2018-03-15T07:54:01.737Z,35.23
2018-03-15T07:55:44.973Z,34.57
2018-03-15T07:57:28.101Z,33.07
2018-03-15T07:59:12.029Z,38.27
2018-03-15T08:00:55.247Z,32.80
2018-03-15T08:02:38.389Z,34.50
2018-03-15T08:04:21.524Z,36.10
2018-03-15T08:06:04.680Z,31.73
2018-03-15T08:07:47.924Z,40.43
2018-03-15T08:09:31.802Z,38.60
2018-03-15T08:11:14.913Z,36.63
2018-03-15T08:12:58.067Z,32.63
2018-03-15T08:14:41.184Z,33.63
2018-03-15T08:16:24.293Z,31.40
2018-03-15T08:18:07.521Z,33.70
2018-03-15T08:20:10.798Z,35.67
2018-03-15T08:21:54.065Z,35.57
2018-03-15T08:23:38.000Z,48.70
2018-03-15T08:25:21.102Z,30.97
2018-03-15T08:27:05.012Z,34.43
2018-03-15T08:28:48.148Z,29.40
2018-03-15T08:30:32.072Z,34.03
2018-03-15T08:32:15.298Z,36.60
2018-03-15T08:33:58.424Z,36.40
2018-03-15T08:35:42.297Z,35.50
2018-03-15T08:37:25.433Z,30.23
2018-03-15T08:39:08.592Z,36.50
2018-03-15T08:40:52.466Z,35.20
2018-03-15T08:42:35.608Z,33.83
2018-03-15T08:44:18.729Z,38.33
2018-03-15T08:46:01.869Z,37.37
2018-03-15T08:47:44.993Z,32.27
2018-03-15T08:49:28.930Z,32.30
2018-03-15T08:51:12.079Z,41.50
2018-03-15T08:52:55.228Z,30.53
2018-03-15T08:54:38.369Z,32.30
2018-03-15T08:56:21.568Z,38.17
2018-03-15T08:58:04.693Z,43.40
2018-03-15T08:59:47.803Z,33.43
2018-03-15T09:01:31.025Z,30.70
2018-03-15T09:03:14.263Z,31.30
2018-03-15T09:04:57.401Z,39.90
2018-03-15T09:06:40.575Z,37.13
2018-03-15T09:08:23.800Z,32.07
2018-03-15T09:10:06.929Z,36.27
2018-03-15T09:11:50.047Z,29.50
2018-03-15T09:13:34.714Z,34.67
2018-03-15T09:15:18.600Z,30.97
2018-03-15T09:17:01.780Z,39.03
2018-03-15T09:18:45.008Z,34.70
2018-03-15T09:20:28.877Z,30.70
2018-03-15T09:22:12.021Z,37.73
2018-03-15T09:23:55.133Z,32.67
2018-03-15T09:25:38.229Z,31.97
2018-03-15T09:27:21.356Z,34.50
2018-03-15T09:29:04.535Z,35.80
2018-03-15T09:30:47.656Z,29.13
2018-03-15T09:32:30.810Z,33.40
2018-03-15T09:34:13.970Z,28.33
2018-03-15T09:35:57.089Z,31.53
2018-03-15T09:37:40.219Z,29.83
2018-03-15T09:39:23.487Z,32.50
2018-03-15T09:41:07.542Z,31.00
2018-03-15T09:42:50.705Z,29.13
2018-03-15T09:44:33.956Z,30.50
2018-03-15T09:46:17.907Z,36.47
2018-03-15T09:48:01.105Z,31.17
2018-03-15T09:49:44.320Z,29.30
2018-03-15T09:51:27.461Z,34.17
2018-03-15T09:53:11.399Z,35.27
2018-03-15T09:54:55.301Z,35.77
2018-03-15T09:56:38.451Z,28.73
2018-03-15T09:58:21.891Z,31.33
2018-03-15T10:00:05.097Z,27.27
2018-03-15T10:01:48.286Z,29.80
2018-03-15T10:03:31.534Z,32.70
2018-03-15T10:05:14.717Z,30.07
2018-03-15T10:06:57.946Z,29.80
2018-03-15T10:08:41.879Z,27.50
2018-03-15T10:10:25.831Z,30.77
2018-03-15T10:12:09.759Z,27.40
2018-03-15T10:13:53.690Z,28.00
2018-03-15T10:15:37.592Z,24.50
2018-03-15T10:17:20.711Z,26.27
2018-03-15T10:19:03.844Z,25.73
2018-03-15T10:20:47.080Z,29.97
2018-03-15T10:22:30.982Z,27.00
2018-03-15T10:24:14.141Z,28.67
2018-03-15T10:25:57.341Z,24.90
2018-03-15T10:27:40.471Z,27.10
2018-03-15T10:29:24.377Z,27.87
2018-03-15T10:31:07.488Z,33.80
2018-03-15T10:32:56.158Z,27.53
2018-03-15T10:34:40.094Z,27.07
2018-03-15T10:36:24.036Z,27.70
2018-03-15T10:38:07.944Z,26.30
2018-03-15T10:39:51.105Z,26.47
2018-03-15T10:41:34.241Z,26.27
2018-03-15T10:43:17.412Z,30.03
2018-03-15T10:45:00.556Z,30.23
2018-03-15T10:46:43.693Z,28.40
2018-03-15T10:48:26.824Z,27.53
2018-03-15T10:50:10.039Z,28.93
2018-03-15T10:51:53.163Z,27.47
2018-03-15T10:53:36.304Z,27.23
2018-03-15T10:55:19.464Z,37.53
2018-03-15T10:57:02.614Z,26.33
2018-03-15T10:58:45.764Z,27.40
2018-03-15T11:00:34.428Z,29.07
2018-03-15T11:02:19.295Z,28.63
2018-03-15T11:04:08.862Z,31.53
2018-03-15T11:08:13.696Z,33.00
2018-03-15T11:09:57.607Z,25.50
2018-03-15T11:11:40.843Z,27.17
2018-03-15T11:13:24.820Z,27.23
2018-03-15T11:15:07.996Z,22.83
2018-03-15T11:16:52.036Z,33.23
2018-03-15T11:18:35.179Z,31.60
2018-03-15T11:20:18.369Z,29.40
2018-03-15T11:22:02.267Z,30.47
2018-03-15T11:23:45.439Z,28.10
2018-03-15T11:25:28.541Z,29.30
2018-03-15T11:27:12.447Z,31.03
2018-03-15T11:28:55.663Z,31.93
2018-03-15T11:30:38.801Z,30.40
2018-03-15T11:32:22.720Z,33.10
2018-03-15T11:34:05.963Z,31.93
2018-03-15T11:35:49.860Z,26.93
2018-03-15T11:37:33.014Z,28.50
2018-03-15T11:39:16.914Z,30.50
2018-03-15T11:41:00.167Z,28.10
2018-03-15T11:42:44.102Z,27.57
2018-03-15T11:44:28.089Z,28.53
2018-03-15T11:46:11.968Z,24.50
2018-03-15T11:47:55.887Z,24.53
2018-03-15T11:49:39.331Z,25.63
2018-03-15T11:51:23.221Z,25.13
2018-03-15T11:53:06.358Z,21.73
2018-03-15T11:54:49.494Z,27.00
2018-03-15T11:56:32.700Z,20.70
2018-03-15T11:58:15.937Z,22.83
2018-03-15T11:59:59.873Z,24.23
2018-03-15T12:01:43.810Z,26.13
2018-03-15T12:03:26.914Z,21.13
2018-03-15T12:05:10.853Z,22.47
2018-03-15T12:06:54.788Z,25.90
2018-03-15T12:08:38.691Z,25.10
2018-03-15T12:10:21.849Z,22.40
2018-03-15T12:12:05.757Z,19.03
2018-03-15T12:13:48.981Z,22.20
2018-03-15T12:15:32.932Z,19.57
2018-03-15T12:17:16.885Z,28.43
2018-03-15T12:19:00.086Z,19.83
2018-03-15T12:20:43.218Z,19.37
2018-03-15T12:22:27.100Z,20.93
2018-03-15T12:24:10.212Z,17.93
2018-03-15T12:25:53.370Z,18.73
2018-03-15T12:27:36.505Z,17.00
2018-03-15T12:29:20.410Z,17.53
2018-03-15T12:31:03.605Z,17.90
2018-03-15T12:32:46.766Z,19.03
2018-03-15T12:34:30.665Z,15.67
2018-03-15T12:36:13.800Z,20.00
2018-03-15T12:37:56.921Z,19.10
2018-03-15T12:39:40.816Z,21.53
2018-03-15T12:41:23.983Z,21.40
2018-03-15T12:43:07.127Z,21.17
2018-03-15T12:44:50.260Z,20.67
2018-03-15T12:46:33.400Z,22.53
2018-03-15T12:48:16.522Z,17.67
2018-03-15T12:49:59.638Z,17.60
2018-03-15T12:51:42.867Z,19.47
2018-03-15T12:53:25.976Z,17.20
2018-03-15T12:55:09.202Z,19.83
2018-03-15T12:56:53.119Z,16.23
2018-03-15T12:58:36.237Z,18.77
2018-03-15T13:00:19.391Z,20.17
2018-03-15T13:02:03.306Z,23.23
2018-03-15T13:03:46.420Z,17.90
2018-03-15T13:05:29.623Z,17.07
2018-03-15T13:07:12.761Z,21.10
2018-03-15T13:08:55.898Z,18.50
2018-03-15T13:10:39.874Z,19.00
2018-03-15T13:12:23.000Z,16.07
2018-03-15T13:14:06.156Z,18.27
2018-03-15T13:15:49.289Z,18.40
2018-03-15T13:17:32.415Z,17.20
2018-03-15T13:19:15.533Z,20.60
2018-03-15T13:20:58.656Z,16.90
2018-03-15T13:22:41.840Z,16.50
2018-03-15T13:24:24.997Z,18.90
2018-03-15T13:26:08.129Z,21.13
2018-03-15T13:27:51.294Z,20.40
2018-03-15T13:29:35.215Z,19.37
2018-03-15T13:31:18.448Z,16.80
2018-03-15T13:33:02.341Z,23.60
2018-03-15T13:34:45.509Z,21.53
2018-03-15T13:36:29.538Z,18.30
2018-03-15T13:38:13.456Z,18.53
2018-03-15T13:39:56.701Z,22.87
2018-03-15T13:41:40.591Z,19.87
2018-03-15T13:43:23.715Z,18.30
2018-03-15T13:45:06.857Z,17.90
2018-03-15T13:46:50.765Z,18.47
2018-03-15T13:48:33.911Z,18.07
2018-03-15T13:50:17.818Z,19.27
2018-03-15T13:52:01.030Z,19.73
2018-03-15T13:53:44.168Z,27.23
2018-03-15T13:55:27.401Z,19.80
2018-03-15T13:57:11.316Z,18.60
2018-03-15T13:58:54.439Z,18.27
2018-03-15T14:00:37.665Z,17.17
2018-03-15T14:02:20.788Z,18.00
2018-03-15T14:04:04.733Z,17.67
2018-03-15T14:05:48.646Z,19.80
2018-03-15T14:07:31.871Z,20.90
2018-03-15T14:09:15.069Z,16.37
2018-03-15T14:10:58.300Z,22.40
2018-03-15T14:12:41.541Z,15.77
2018-03-15T14:14:25.481Z,17.93
2018-03-15T14:16:09.399Z,17.80
2018-03-15T14:17:53.296Z,25.70
2018-03-15T14:19:36.449Z,21.30
2018-03-15T14:21:19.824Z,15.90
2018-03-15T14:23:02.922Z,18.60
2018-03-15T14:24:46.027Z,22.77
2018-03-15T14:26:29.503Z,22.33
2018-03-15T14:28:12.751Z,18.37
2018-03-15T14:29:56.636Z,22.00
2018-03-15T14:31:39.805Z,24.40
2018-03-15T14:33:23.712Z,22.70
2018-03-15T14:35:06.835Z,24.30
2018-03-15T14:36:49.965Z,18.03
2018-03-15T14:38:33.152Z,21.50
2018-03-15T14:40:16.270Z,20.33
2018-03-15T14:41:59.423Z,22.17
2018-03-15T14:43:43.296Z,19.33
2018-03-15T14:45:26.428Z,21.17
2018-03-15T14:47:09.569Z,23.00
2018-03-15T14:48:52.685Z,17.30
2018-03-15T14:50:35.919Z,19.70
2018-03-15T14:52:19.859Z,18.40
2018-03-15T14:54:03.893Z,17.13
2018-03-15T14:55:47.002Z,19.67
2018-03-15T14:57:30.152Z,22.37
2018-03-15T14:59:13.281Z,18.03
2018-03-15T15:00:56.388Z,20.63
2018-03-15T15:02:39.549Z,21.20
2018-03-15T15:04:22.686Z,17.43
2018-03-15T15:06:07.325Z,18.00
2018-03-15T15:07:50.464Z,19.27
2018-03-15T15:09:33.690Z,22.27
2018-03-15T15:11:17.622Z,16.80
2018-03-15T15:13:01.555Z,16.30
2018-03-15T15:14:45.453Z,15.50
2018-03-15T15:16:28.565Z,18.70
2018-03-15T15:18:11.687Z,16.50
2018-03-15T15:19:54.904Z,18.40
2018-03-15T15:21:38.017Z,17.50
2018-03-15T15:23:21.188Z,19.60
2018-03-15T15:25:05.084Z,14.63
2018-03-15T15:26:48.201Z,18.07
2018-03-15T15:28:31.348Z,17.57
2018-03-15T15:30:15.261Z,18.77
2018-03-15T15:31:58.386Z,16.93
2018-03-15T15:33:41.519Z,19.30
2018-03-15T15:35:25.399Z,16.47
2018-03-15T15:37:08.502Z,18.70
2018-03-15T15:38:51.629Z,21.53
2018-03-15T15:40:34.788Z,21.03
2018-03-15T15:42:18.709Z,20.40
2018-03-15T15:44:01.828Z,24.70
2018-03-15T15:45:44.936Z,19.67
2018-03-15T15:47:28.157Z,19.50
2018-03-15T15:49:11.805Z,18.80
2018-03-15T15:50:54.919Z,18.97
2018-03-15T15:52:38.853Z,17.70
2018-03-15T15:54:22.756Z,19.83
2018-03-15T15:56:05.911Z,21.43
2018-03-15T15:57:49.805Z,20.40
2018-03-15T15:59:32.925Z,18.20
2018-03-15T16:01:16.065Z,17.97
2018-03-15T16:02:59.261Z,19.70
2018-03-15T16:04:42.490Z,19.03
2018-03-15T16:06:25.626Z,22.73
2018-03-15T16:08:09.032Z,19.90
2018-03-15T16:09:52.154Z,20.67
2018-03-15T16:11:35.256Z,21.30
2018-03-15T16:13:18.377Z,20.30
2018-03-15T16:15:01.558Z,19.97
2018-03-15T16:16:44.684Z,19.87
2018-03-15T16:18:27.941Z,19.90
2018-03-15T16:20:11.817Z,18.73
2018-03-15T16:21:54.931Z,20.93
2018-03-15T16:23:38.066Z,21.47
2018-03-15T16:25:21.171Z,18.00
2018-03-15T16:27:04.383Z,17.47
2018-03-15T16:28:47.674Z,19.30
2018-03-15T16:30:30.858Z,18.43
2018-03-15T16:32:14.064Z,22.90
2018-03-15T16:33:57.220Z,22.77
2018-03-15T16:35:40.352Z,23.90
2018-03-15T16:37:24.273Z,20.90
2018-03-15T16:39:07.493Z,18.63
2018-03-15T16:40:50.617Z,22.70
2018-03-15T16:42:34.501Z,23.53
2018-03-15T16:44:17.640Z,21.30
2018-03-15T16:46:00.769Z,19.87
2018-03-15T16:47:44.749Z,22.13
2018-03-15T16:49:27.872Z,24.07
2018-03-15T16:51:11.025Z,25.60
2018-03-15T16:52:54.128Z,24.30
2018-03-15T16:54:37.281Z,21.73
2018-03-15T16:56:20.406Z,23.17
2018-03-15T16:58:04.284Z,19.27
2018-03-15T16:59:47.445Z,24.13
2018-03-15T17:01:31.388Z,21.23
2018-03-15T17:03:14.604Z,22.93
2018-03-15T17:04:57.742Z,26.73
2018-03-15T17:06:40.901Z,23.70
2018-03-15T17:08:24.026Z,27.10
2018-03-15T17:10:07.148Z,24.87
2018-03-15T17:11:50.266Z,23.43
2018-03-15T17:13:33.383Z,25.60
2018-03-15T17:15:16.506Z,25.00
2018-03-15T17:16:59.728Z,22.83
2018-03-15T17:18:42.835Z,24.47
2018-03-15T17:20:25.976Z,26.77
2018-03-15T17:22:09.853Z,26.40
2018-03-15T17:23:53.025Z,24.17
2018-03-15T17:25:36.236Z,23.27
2018-03-15T17:27:19.370Z,32.80
2018-03-15T17:29:03.282Z,27.07
2018-03-15T17:30:46.395Z,29.03
2018-03-15T17:32:29.517Z,25.60
2018-03-15T17:34:12.645Z,26.47
2018-03-15T17:35:56.528Z,26.47
2018-03-15T17:37:39.642Z,26.80
2018-03-15T17:39:22.772Z,28.53
2018-03-15T17:41:05.909Z,26.30
2018-03-15T17:42:49.079Z,25.47
2018-03-15T17:44:32.980Z,25.53
2018-03-15T17:46:16.893Z,22.20
2018-03-15T17:48:00.022Z,29.53
2018-03-15T17:49:43.433Z,29.87
2018-03-15T17:51:26.544Z,27.70
2018-03-15T17:53:09.690Z,27.73
2018-03-15T17:54:53.645Z,29.70
2018-03-15T17:56:36.782Z,33.97
2018-03-15T17:58:19.946Z,27.00
2018-03-15T18:00:03.085Z,27.13
2018-03-15T18:01:47.000Z,25.73
2018-03-15T18:03:30.119Z,28.00
2018-03-15T18:05:13.258Z,33.73
2018-03-15T18:06:57.178Z,34.90
2018-03-15T18:08:41.078Z,33.23
2018-03-15T18:10:24.306Z,33.70
2018-03-15T18:12:07.440Z,30.17
2018-03-15T18:13:51.380Z,31.30
2018-03-15T18:15:34.537Z,30.47
2018-03-15T18:17:17.768Z,30.27
2018-03-15T18:19:00.896Z,33.43
2018-03-15T18:20:44.172Z,31.43
2018-03-15T18:22:27.289Z,32.47
2018-03-15T18:24:10.472Z,34.40
2018-03-15T18:25:53.622Z,38.00
2018-03-15T18:27:37.503Z,32.30
2018-03-15T18:29:20.626Z,32.10
2018-03-15T18:31:03.874Z,31.60
2018-03-15T18:32:47.797Z,33.33
2018-03-15T18:34:31.016Z,32.77
2018-03-15T18:36:14.174Z,31.37
2018-03-15T18:37:57.336Z,32.97
2018-03-15T18:39:40.478Z,36.20
2018-03-15T18:41:23.612Z,37.10
2018-03-15T18:43:07.532Z,32.10
2018-03-15T18:44:51.466Z,34.63
2018-03-15T18:46:34.608Z,41.77
2018-03-15T18:48:17.716Z,37.30
2018-03-15T18:50:01.642Z,40.20
2018-03-15T18:51:45.543Z,35.97
2018-03-15T18:53:28.674Z,37.83
2018-03-15T18:55:11.803Z,36.60
2018-03-15T18:56:55.713Z,36.03
2018-03-15T18:58:39.616Z,42.07
2018-03-15T19:00:22.746Z,33.97
2018-03-15T19:02:06.000Z,41.50
2018-03-15T19:03:49.148Z,41.77
2018-03-15T19:05:32.330Z,39.50
2018-03-15T19:07:15.477Z,36.50
2018-03-15T19:08:58.665Z,38.35
2018-03-15T19:10:42.558Z,38.50
2018-03-15T19:12:25.711Z,43.27
2018-03-15T19:14:09.321Z,43.70
2018-03-15T19:15:52.444Z,38.27
2018-03-15T19:17:35.580Z,39.23
2018-03-15T19:19:18.706Z,43.20
2018-03-15T19:21:02.637Z,42.47
2018-03-15T19:22:46.558Z,42.67
2018-03-15T19:24:29.686Z,41.10
2018-03-15T19:26:12.833Z,40.00
2018-03-15T19:27:55.961Z,42.47
2018-03-15T19:29:39.100Z,41.20
2018-03-15T19:31:22.262Z,43.67
2018-03-15T19:33:06.193Z,46.25
2018-03-15T19:34:50.134Z,49.00
2018-03-15T19:36:34.068Z,43.70
2018-03-15T19:38:17.213Z,42.83
2018-03-15T19:40:00.374Z,41.50
2018-03-15T19:41:43.618Z,43.67
2018-03-15T19:43:27.509Z,45.17
2018-03-15T19:45:10.653Z,44.27
2018-03-15T19:46:53.800Z,41.73
2018-03-15T19:48:37.697Z,47.30
2018-03-15T19:50:20.899Z,37.13
2018-03-15T19:52:04.060Z,41.20
2018-03-15T19:53:47.971Z,42.10
2018-03-15T19:55:31.212Z,41.70
2018-03-15T19:57:15.134Z,46.47
2018-03-15T19:58:58.264Z,44.90
2018-03-15T20:00:41.478Z,41.53
2018-03-15T20:02:24.628Z,45.17
2018-03-15T20:04:07.832Z,46.40
2018-03-15T20:05:51.773Z,40.73
2018-03-15T20:07:35.807Z,43.90
2018-03-15T20:09:19.694Z,44.27
2018-03-15T20:11:02.856Z,44.80
2018-03-15T20:12:46.776Z,48.67
2018-03-15T20:14:30.682Z,46.00
2018-03-15T20:16:14.155Z,40.90
2018-03-15T20:17:57.303Z,44.63
2018-03-15T20:19:40.468Z,44.30
2018-03-15T20:21:24.362Z,43.97
2018-03-15T20:23:13.155Z,45.10
2018-03-15T20:24:57.060Z,42.87
2018-03-15T20:26:40.192Z,51.47
2018-03-15T20:28:29.026Z,46.10
2018-03-15T20:30:12.159Z,48.80
2018-03-15T20:31:55.304Z,43.97
2018-03-15T20:33:44.844Z,45.20
2018-03-15T20:35:28.060Z,52.83
2018-03-15T20:37:11.195Z,43.87
2018-03-15T20:38:55.103Z,49.20
2018-03-15T20:40:43.674Z,54.80
2018-03-15T20:42:27.663Z,51.30
2018-03-15T20:44:10.833Z,47.20
2018-03-15T20:45:59.669Z,50.97
2018-03-15T20:47:49.332Z,49.22
2018-03-15T20:49:32.471Z,58.37
2018-03-15T20:51:15.671Z,44.83
2018-03-15T20:52:58.820Z,48.80
2018-03-15T20:54:41.960Z,59.97
2018-03-15T20:56:25.520Z,55.07
2018-03-15T20:58:08.785Z,51.15
2018-03-15T20:59:51.937Z,52.30
2018-03-15T21:01:35.069Z,48.45
2018-03-15T21:03:18.198Z,51.20
2018-03-15T21:05:01.346Z,52.92
2018-03-15T21:06:44.478Z,47.90
2018-03-15T21:08:27.619Z,49.43
2018-03-15T21:10:10.760Z,54.30
2018-03-15T21:11:53.894Z,54.83
2018-03-15T21:13:37.816Z,46.47
2018-03-15T21:15:20.948Z,54.67
2018-03-15T21:17:04.852Z,58.63
2018-03-15T21:18:47.973Z,58.38
2018-03-15T21:20:31.132Z,55.37
2018-03-15T21:22:14.278Z,46.67
2018-03-15T21:23:57.440Z,54.03
2018-03-15T21:25:41.377Z,55.50
2018-03-15T21:27:25.268Z,55.15
2018-03-15T21:29:08.752Z,51.83
2018-03-15T21:30:52.651Z,51.80
2018-03-15T21:32:35.809Z,56.10
2018-03-15T21:34:18.958Z,56.40
2018-03-15T21:36:02.108Z,57.20
2018-03-15T21:37:45.313Z,59.37
2018-03-15T21:39:28.570Z,60.60
2018-03-15T21:41:12.479Z,61.08
2018-03-15T21:42:55.718Z,57.38
2018-03-15T21:44:39.617Z,55.88
2018-03-15T21:46:22.876Z,52.90
2018-03-15T21:48:06.806Z,56.70
2018-03-15T21:49:49.944Z,61.13
2018-03-15T21:51:33.244Z,62.22
2018-03-15T21:53:17.178Z,60.00
2018-03-15T21:55:01.073Z,56.05
2018-03-15T21:56:44.226Z,51.30
2018-03-15T21:58:27.342Z,63.70
2018-03-15T22:00:11.964Z,50.80
2018-03-15T22:01:55.094Z,58.60
2018-03-15T22:03:38.276Z,59.17
2018-03-15T22:05:21.410Z,57.73
2018-03-15T22:07:04.568Z,55.33
2018-03-15T22:08:48.457Z,61.65
2018-03-15T22:10:31.610Z,62.88
2018-03-15T22:12:15.498Z,66.50
2018-03-15T22:13:58.709Z,56.07